createdAt,value
2018-08-22T00:01:32.191Z,1.20
2018-08-22T00:06:35.238Z,1.50
2018-08-22T00:11:38.209Z,1.10
2018-08-22T00:16:41.182Z,1.17
2018-08-22T00:21:44.281Z,1.50
2018-08-22T00:26:47.270Z,1.27
2018-08-22T00:31:50.246Z,1.30
2018-08-22T00:36:53.265Z,1.27
2018-08-22T00:41:56.342Z,1.30
2018-08-22T00:46:59.434Z,1.40
2018-08-22T00:52:02.400Z,1.50
2018-08-22T00:57:05.375Z,1.20
2018-08-22T01:02:08.337Z,1.27
2018-08-22T01:07:11.314Z,1.73
2018-08-22T01:12:14.398Z,1.40
2018-08-22T01:17:17.489Z,1.20
2018-08-22T01:22:20.613Z,1.30
2018-08-22T01:27:23.954Z,1.50
2018-08-22T01:32:27.062Z,1.77
2018-08-22T01:37:30.058Z,1.40
2018-08-22T01:42:33.039Z,1.00
2018-08-22T01:47:36.013Z,2.50
2018-08-22T01:52:38.996Z,1.10
2018-08-22T01:57:42.002Z,1.53
2018-08-22T02:02:45.270Z,1.47
2018-08-22T02:07:48.250Z,1.50
2018-08-22T02:12:51.267Z,1.27
2018-08-22T02:17:54.590Z,1.40
2018-08-22T02:22:57.819Z,1.70
2018-08-22T02:28:00.886Z,1.43
2018-08-22T02:33:03.884Z,1.47
2018-08-22T02:38:06.918Z,1.27
2018-08-22T02:43:09.913Z,1.40
2018-08-22T02:48:12.943Z,1.70
2018-08-22T02:53:16.070Z,1.33
2018-08-22T02:58:19.066Z,1.50
2018-08-22T03:03:22.118Z,1.30
2018-08-22T03:08:25.291Z,1.33
2018-08-22T03:13:28.534Z,1.40
2018-08-22T03:18:31.547Z,1.63
2018-08-22T03:23:34.541Z,1.27
2018-08-22T03:28:37.534Z,1.50
2018-08-22T03:33:40.542Z,1.50
2018-08-22T03:38:43.695Z,1.53
2018-08-22T03:43:46.771Z,1.80
2018-08-22T03:48:49.757Z,1.77
2018-08-22T03:53:52.945Z,1.53
2018-08-22T03:58:56.141Z,1.77
2018-08-22T04:03:59.258Z,1.33
2018-08-22T04:09:02.298Z,1.20
2018-08-22T04:14:05.337Z,1.60
2018-08-22T04:19:08.325Z,2.57
2018-08-22T04:24:11.310Z,1.70
2018-08-22T04:29:14.499Z,1.43
2018-08-22T04:34:17.494Z,1.57
2018-08-22T04:39:20.498Z,1.57
2018-08-22T04:44:23.522Z,1.70
2018-08-22T04:49:26.853Z,1.57
2018-08-22T04:54:29.882Z,1.80
2018-08-22T04:59:32.891Z,1.97
2018-08-22T05:04:35.882Z,1.83
2018-08-22T05:09:38.871Z,2.10
2018-08-22T05:14:41.890Z,1.87
2018-08-22T05:19:44.883Z,2.20
2018-08-22T05:24:47.938Z,2.17
2018-08-22T05:29:50.930Z,2.80
2018-08-22T05:34:54.218Z,2.47
2018-08-22T05:39:57.746Z,2.20
2018-08-22T05:45:00.945Z,2.20
2018-08-22T05:50:04.258Z,2.20
2018-08-22T05:55:07.251Z,2.20
2018-08-22T06:00:10.257Z,2.07
2018-08-22T06:05:13.298Z,2.30
2018-08-22T06:10:16.382Z,2.30
2018-08-22T06:15:19.367Z,1.87
2018-08-22T06:20:22.382Z,2.17
2018-08-22T06:25:25.462Z,1.90
2018-08-22T06:30:28.647Z,1.87
2018-08-22T06:35:31.702Z,2.00
2018-08-22T06:40:34.689Z,1.90
2018-08-22T06:45:37.683Z,1.70
2018-08-22T06:50:40.714Z,1.80
2018-08-22T06:55:43.846Z,1.70
2018-08-22T07:00:46.851Z,1.87
2018-08-22T07:05:49.849Z,1.50
2018-08-22T07:10:52.906Z,1.47
2018-08-22T07:15:56.164Z,1.70
2018-08-22T07:20:59.267Z,1.43
2018-08-22T07:26:02.180Z,2.17
2018-08-22T07:31:05.246Z,1.77
2018-08-22T07:36:08.234Z,1.37
2018-08-22T07:41:12.238Z,1.90
2018-08-22T07:46:15.322Z,1.30
2018-08-22T07:51:18.366Z,1.73
2018-08-22T07:56:22.294Z,1.37
2018-08-22T08:01:25.510Z,1.60
2018-08-22T08:06:28.547Z,1.77
2018-08-22T08:11:31.550Z,1.80
2018-08-22T08:16:34.650Z,1.80
2018-08-22T08:21:37.998Z,1.60
2018-08-22T08:26:41.006Z,1.60
2018-08-22T08:31:44.010Z,1.63
2018-08-22T08:36:47.046Z,1.87
2018-08-22T08:41:50.063Z,1.50
2018-08-22T08:46:53.560Z,1.50
2018-08-22T08:51:57.803Z,1.10
2018-08-22T08:57:00.846Z,1.30
2018-08-22T09:02:03.859Z,1.20
2018-08-22T09:07:06.882Z,0.90
2018-08-22T09:12:09.950Z,0.93
2018-08-22T09:17:13.035Z,1.20
2018-08-22T09:22:16.024Z,0.90
2018-08-22T09:27:19.017Z,0.90
2018-08-22T09:32:22.075Z,1.13
2018-08-22T09:37:25.148Z,1.20
2018-08-22T09:42:28.302Z,1.10
2018-08-22T09:47:31.342Z,1.07
2018-08-22T09:52:34.363Z,1.13
2018-08-22T09:57:37.363Z,1.20
2018-08-22T10:02:40.365Z,1.10
2018-08-22T10:07:43.398Z,1.20
2018-08-22T10:12:46.498Z,1.00
2018-08-22T10:17:49.511Z,1.37
2018-08-22T10:22:52.522Z,1.07
2018-08-22T10:27:55.715Z,1.20
2018-08-22T10:32:58.749Z,1.20
2018-08-22T10:38:02.022Z,1.30
2018-08-22T10:43:05.050Z,1.33
2018-08-22T10:48:08.106Z,1.30
2018-08-22T10:53:11.043Z,1.10
2018-08-22T10:58:14.050Z,1.10
2018-08-22T11:03:17.055Z,1.10
2018-08-22T11:08:20.050Z,1.13
2018-08-22T11:13:23.090Z,1.30
2018-08-22T11:18:26.391Z,1.27
2018-08-22T11:23:40.669Z,1.10
2018-08-22T11:28:55.061Z,1.30
2018-08-22T11:34:09.528Z,0.73
2018-08-22T11:39:12.551Z,1.13
2018-08-22T11:44:15.755Z,1.10
2018-08-22T11:49:18.802Z,1.17
2018-08-22T11:54:21.835Z,1.00
2018-08-22T11:59:24.967Z,0.80
2018-08-22T12:04:28.142Z,1.00
2018-08-22T12:09:31.141Z,0.93
2018-08-22T12:14:34.146Z,0.90
2018-08-22T12:19:37.163Z,1.70
2018-08-22T12:24:40.166Z,0.93
2018-08-22T12:29:43.186Z,1.20
2018-08-22T12:34:46.198Z,1.10
2018-08-22T12:39:49.207Z,1.20
2018-08-22T12:44:52.592Z,1.13
2018-08-22T12:49:55.655Z,1.00
2018-08-22T12:54:58.650Z,0.80
2018-08-22T13:00:01.699Z,0.90
2018-08-22T13:05:04.714Z,1.00
2018-08-22T13:10:07.726Z,0.80
2018-08-22T13:15:10.813Z,1.00
2018-08-22T13:20:13.882Z,1.27
2018-08-22T13:25:16.882Z,0.90
2018-08-22T13:30:19.908Z,1.00
2018-08-22T13:35:23.102Z,1.00
2018-08-22T13:40:26.203Z,1.20
2018-08-22T13:45:29.354Z,0.90
2018-08-22T13:50:32.349Z,1.07
2018-08-22T13:55:35.366Z,1.13
2018-08-22T14:00:38.373Z,1.00
2018-08-22T14:05:41.450Z,1.27
2018-08-22T14:10:44.633Z,0.80
2018-08-22T14:15:47.703Z,1.63
2018-08-22T14:20:50.732Z,1.03
2018-08-22T14:25:54.381Z,1.10
2018-08-22T14:30:57.566Z,1.03
2018-08-22T14:36:00.613Z,1.40
2018-08-22T14:41:03.609Z,1.30
2018-08-22T14:46:06.598Z,0.80
2018-08-22T14:51:09.650Z,0.70
2018-08-22T14:56:12.883Z,1.13
2018-08-22T15:01:15.855Z,1.00
2018-08-22T15:21:51.338Z,0.80
2018-08-22T15:26:54.342Z,0.80
2018-08-22T15:31:57.362Z,1.00
2018-08-22T15:37:00.367Z,0.90
2018-08-22T15:42:03.472Z,1.10
2018-08-22T15:47:06.434Z,1.10
2018-08-22T15:52:09.411Z,1.80
2018-08-22T15:57:12.415Z,1.20
2018-08-22T16:02:15.433Z,1.30
2018-08-22T16:07:18.442Z,1.03
2018-08-22T16:12:21.443Z,1.23
2018-08-22T16:17:24.447Z,0.93
2018-08-22T16:22:27.459Z,1.00
2018-08-22T16:27:30.886Z,1.13
2018-08-22T16:32:33.891Z,1.07
2018-08-22T16:37:38.045Z,1.10
2018-08-22T16:42:41.051Z,1.33
2018-08-22T16:47:44.082Z,1.00
2018-08-22T16:52:47.189Z,1.03
2018-08-22T16:57:50.982Z,1.07
2018-08-22T17:02:53.991Z,1.20
2018-08-22T17:07:57.148Z,1.10
2018-08-22T17:13:00.166Z,1.33
2018-08-22T17:18:03.175Z,1.30
2018-08-22T17:23:06.250Z,1.30
2018-08-22T17:28:09.198Z,1.30
2018-08-22T17:33:12.719Z,1.27
2018-08-22T17:38:15.718Z,1.27
2018-08-22T17:43:20.541Z,1.47
2018-08-22T17:48:23.631Z,1.90
2018-08-22T17:53:27.067Z,1.20
2018-08-22T17:58:30.247Z,1.47
2018-08-22T18:03:33.250Z,1.20
2018-08-22T18:08:36.369Z,1.30
2018-08-22T18:13:39.407Z,1.40
2018-08-22T18:18:42.414Z,1.50
2018-08-22T18:23:51.645Z,1.63
2018-08-22T18:28:54.710Z,1.30
2018-08-22T18:34:00.717Z,1.37
2018-08-22T18:39:07.816Z,1.40
2018-08-22T18:44:10.958Z,1.40
2018-08-22T18:49:14.359Z,1.50
2018-08-22T18:54:17.575Z,1.17
2018-08-22T18:59:24.892Z,1.53
2018-08-22T19:04:28.251Z,1.73
2018-08-22T19:09:31.434Z,1.93
2018-08-22T19:14:44.018Z,1.67
2018-08-22T19:19:48.314Z,1.83
2018-08-22T19:25:03.395Z,2.40
2018-08-22T19:30:07.127Z,1.63
2018-08-22T19:35:10.331Z,1.80
2018-08-22T19:40:13.337Z,1.73
2018-08-22T19:45:16.449Z,1.77
2018-08-22T19:50:19.886Z,1.53
2018-08-22T19:55:23.303Z,1.73
2018-08-22T20:00:26.470Z,1.77
2018-08-22T20:05:49.615Z,1.70
2018-08-22T20:10:52.675Z,2.13
2018-08-22T20:15:55.727Z,1.60
2018-08-22T20:20:59.010Z,1.70
2018-08-22T20:26:02.019Z,2.10
2018-08-22T20:31:09.445Z,1.77
2018-08-22T20:36:12.910Z,1.60
2018-08-22T20:41:16.654Z,1.93
2018-08-22T20:46:19.775Z,1.77
2018-08-22T20:51:22.798Z,1.50
2018-08-22T20:56:25.819Z,1.80
2018-08-22T21:01:28.842Z,1.90
2018-08-22T21:06:31.863Z,1.70
2018-08-22T21:11:35.882Z,2.00
2018-08-22T21:16:39.212Z,1.77
2018-08-22T21:21:42.246Z,1.60
2018-08-22T21:26:45.682Z,1.53
2018-08-22T21:31:48.698Z,1.70
2018-08-22T21:36:51.723Z,1.77
2018-08-22T21:41:54.924Z,1.93
2018-08-22T21:47:03.110Z,2.23
2018-08-22T21:52:06.134Z,1.70
2018-08-22T21:57:09.167Z,1.90
2018-08-22T22:02:12.506Z,1.90
2018-08-22T22:07:15.536Z,2.10
2018-08-22T22:12:23.978Z,1.80
2018-08-22T22:17:27.005Z,1.67
2018-08-22T22:22:30.134Z,1.80
2018-08-22T22:27:33.158Z,1.90
2018-08-22T22:32:36.170Z,1.87
2018-08-22T22:37:39.194Z,1.83
2018-08-22T22:42:42.198Z,1.93
2018-08-22T22:47:45.222Z,1.93
2018-08-22T22:52:48.330Z,1.80
2018-08-22T22:57:51.350Z,1.80
2018-08-22T23:02:59.819Z,2.10
2018-08-22T23:08:03.178Z,2.20
2018-08-22T23:13:06.201Z,2.07
2018-08-22T23:18:09.235Z,2.60
2018-08-22T23:23:29.307Z,2.13
2018-08-22T23:28:32.315Z,2.23
2018-08-22T23:33:35.351Z,2.00
2018-08-22T23:38:38.379Z,2.67
2018-08-22T23:43:46.958Z,2.03
2018-08-22T23:48:55.187Z,2.10
2018-08-22T23:53:59.444Z,2.00
2018-08-22T23:59:02.510Z,2.23
